Aloha, Louisiana
Current Conditions -  °F | °C
As of 5:53 PM on Friday 19 Dec 2014 (Local Time) from KAEX Reporting Station
Light Rain Light Rain  
Wind Chill: 45°   Ceiling: 800
Heat Index: 48°   Visibility: 10mi
Dew Point: 47°   Wind: 7mph
Humidity: 96%   Direction: 80°E
Pressure: 30.08"   Gusts: NA
Location:  31.503°N, 92.6476°W
Report Text: KAEX 192353Z 08006KT 10SM -RA OVC008 09/08 A3008 RMK AO2 CIG 006V010 SLP190 P0000 60018 T00890083 10111 20089 56004
Loading
Personal Weather Stations






























Interactive Weather Map New forecast layout! Learn more

10-Day Weather Forecast

Advertisements
Track Severe Weather on mobile